MSC Ishyka — A8UW7 — position and weather

sailwx.info

Track history (hours):
 
Tides and Currents Weather Stations Pressure Air Temp Water Temp Dewpoint Dewpoint Depression Visibility Wind Speed Wind Dir Waves Ship Positions

MSC Ishyka

Last reported at 2017-Dec-16 02:26 UTC. Time now 2018-Feb-22 06:30 UTC.
Position S 29°23' E 031°42'.
Warning: this ship's position is months out of date.

Length 208 m; draft 11.3 m.

Type: Ship (hazmat cat A). MMSI: 636016457.

Date/timePositionNaut miles runAvg speedWind from/ knotsBaromVisibWave heightAir tempDewpointWater temp
2017-Dec-16 02:26S 29°23' E 031°42'512.6
2017-Dec-16 02:00S 29°27' E 031°38'612.9
2017-Dec-16 01:30S 29°31' E 031°33'713.1
2017-Dec-16 01:01S 29°36' E 031°28'713.2
2017-Dec-16 00:30S 29°41' E 031°23'713.3
2017-Dec-16 00:00S 29°46' E 031°17'713.5
2017-Dec-15 23:30S 29°49' E 031°10'612.7
2017-Dec-15 23:01S 29°52' E 031°04'3 5.2
2017-Dec-15 22:31S 29°53' E 031°01'0 0.0
2017-Dec-15 22:00S 29°53' E 031°01'0 0.0
2017-Dec-15 21:30S 29°53' E 031°01'0 0.0
2017-Dec-15 21:00S 29°53' E 031°01'0 0.0
2017-Dec-15 20:30S 29°53' E 031°01'0 0.0
2017-Dec-15 20:00S 29°53' E 031°01'0 0.0
2017-Dec-15 19:30S 29°53' E 031°01'0 0.0
2017-Dec-15 19:00S 29°53' E 031°01'0 0.0
2017-Dec-15 18:30S 29°53' E 031°01'0 0.0
2017-Dec-15 18:00S 29°53' E 031°01'0 0.0
2017-Dec-15 17:27S 29°53' E 031°01'0 0.0
2017-Dec-15 17:00S 29°53' E 031°01'0 0.0
2017-Dec-15 16:30S 29°53' E 031°01'0 0.0
2017-Dec-15 16:00S 29°53' E 031°01'0 0.0
2017-Dec-15 15:30S 29°53' E 031°01'0 0.0
2017-Dec-15 15:00S 29°53' E 031°01'0 0.0
2017-Dec-15 14:30S 29°53' E 031°01'0 0.0
2017-Dec-15 14:00S 29°53' E 031°01'0 0.0
2017-Dec-15 13:30S 29°53' E 031°01'0 0.0
2017-Dec-15 13:00S 29°53' E 031°01'0 0.0
2017-Dec-15 12:30S 29°53' E 031°01'0 0.0
2017-Dec-15 12:00S 29°53' E 031°01'0 0.0
2017-Dec-15 11:30S 29°53' E 031°01'0 0.0
2017-Dec-15 10:57S 29°53' E 031°01'0 0.0
2017-Dec-15 10:30S 29°53' E 031°01'0 0.0
2017-Dec-15 10:00S 29°53' E 031°01'0 0.0
2017-Dec-15 09:30S 29°53' E 031°01'0 0.0
2017-Dec-15 09:00S 29°53' E 031°01'0 0.0
2017-Dec-15 08:30S 29°53' E 031°01'0 0.0
2017-Dec-15 08:00S 29°53' E 031°01'0 0.0
2017-Dec-15 07:30S 29°53' E 031°01'0 0.0
2017-Dec-15 07:00S 29°53' E 031°01'0 0.0
2017-Dec-15 06:30S 29°53' E 031°01'0 0.0
2017-Dec-15 06:00S 29°53' E 031°01'0 0.0
2017-Dec-15 05:30S 29°53' E 031°01'0 0.0
2017-Dec-15 05:00S 29°53' E 031°01'0 0.0
2017-Dec-15 04:30S 29°53' E 031°01'0 0.0
2017-Dec-15 03:57S 29°53' E 031°01'0 0.0
2017-Dec-15 02:30S 29°53' E 031°01'0 0.0
2017-Dec-15 01:00S 29°53' E 031°01'0 0.0
2017-Dec-15 00:30S 29°53' E 031°01'0 0.0
2017-Dec-14 18:30S 29°53' E 031°01'0 0.0
2017-Dec-14 18:00S 29°53' E 031°01'0 0.0
2017-Dec-14 17:30S 29°53' E 031°01'0 0.0
2017-Dec-14 17:00S 29°53' E 031°01'0 0.0
2017-Dec-14 16:30S 29°53' E 031°01'0 0.0
2017-Dec-14 16:00S 29°53' E 031°01'0 0.0
2017-Dec-14 15:00S 29°53' E 031°01'0 0.0
2017-Dec-14 14:30S 29°53' E 031°01'0 0.0
2017-Dec-14 14:00S 29°53' E 031°01'0 0.0
2017-Dec-14 13:30S 29°53' E 031°01'0 0.0
2017-Dec-14 12:57S 29°53' E 031°01'0 0.0
2017-Dec-14 12:30S 29°53' E 031°01'0 0.0
2017-Dec-14 12:00S 29°53' E 031°01'0 0.0
2017-Dec-14 11:30S 29°53' E 031°01'0 0.0
2017-Dec-14 11:00S 29°53' E 031°01'0 0.0
2017-Dec-14 10:30S 29°53' E 031°01'0 0.0
2017-Dec-14 10:00S 29°53' E 031°01'0 0.0
2017-Dec-14 09:30S 29°53' E 031°01'0 0.0
2017-Dec-14 09:00S 29°53' E 031°01'0 0.0
2017-Dec-14 08:30S 29°53' E 031°01'0 0.0
2017-Dec-14 08:00S 29°53' E 031°01'0 0.0
2017-Dec-14 07:30S 29°53' E 031°01'1 1.4
2017-Dec-14 07:01S 29°52' E 031°02'3 6.3
2017-Dec-14 06:31S 29°50' E 031°05'3 6.0
2017-Dec-14 06:00S 29°48' E 031°07'0 0.2
2017-Dec-14 05:31S 29°48' E 031°07'1 1.4
2017-Dec-14 05:01S 29°49' E 031°06'0 0.6
2017-Dec-14 04:31S 29°49' E 031°06'2 3.5
2017-Dec-14 04:00S 29°49' E 031°08'1 2.4
2017-Dec-14 03:31S 29°50' E 031°10'1 2.4
2017-Dec-14 03:01S 29°51' E 031°10'4 7.6
2017-Dec-14 02:30S 29°55' E 031°10'714.5
2017-Dec-14 02:01S 30°01' E 031°06'918.7
2017-Dec-14 01:31S 30°09' E 030°60'1020.5
2017-Dec-14 01:00S 30°18' E 030°53'  
2017-Dec-06 21:28S 05°53' E 011°23'  
Track history (hours):
 
Tides and Currents Weather Stations Pressure Air Temp Water Temp Dewpoint Dewpoint Depression Visibility Wind Speed Wind Dir Waves Ship Positions

MSC Ishyka

Last reported at 2017-Dec-16 02:26 UTC. Time now 2018-Feb-22 06:30 UTC.
Position S 29°23' E 031°42'.
Warning: this ship's position is months out of date.

Length 208 m; draft 11.3 m.

Type: Ship (hazmat cat A). MMSI: 636016457.

Date/timePositionNaut miles runAvg speedWind from/ knotsBaromVisibWave heightAir tempDewpointWater temp
2017-Dec-16 02:26S 29°23' E 031°42'512.6
2017-Dec-16 02:00S 29°27' E 031°38'612.9
2017-Dec-16 01:30S 29°31' E 031°33'713.1
2017-Dec-16 01:01S 29°36' E 031°28'713.2
2017-Dec-16 00:30S 29°41' E 031°23'713.3
2017-Dec-16 00:00S 29°46' E 031°17'713.5
2017-Dec-15 23:30S 29°49' E 031°10'612.7
2017-Dec-15 23:01S 29°52' E 031°04'3 5.2
2017-Dec-15 22:31S 29°53' E 031°01'0 0.0
2017-Dec-15 22:00S 29°53' E 031°01'0 0.0
2017-Dec-15 21:30S 29°53' E 031°01'0 0.0
2017-Dec-15 21:00S 29°53' E 031°01'0 0.0
2017-Dec-15 20:30S 29°53' E 031°01'0 0.0
2017-Dec-15 20:00S 29°53' E 031°01'0 0.0
2017-Dec-15 19:30S 29°53' E 031°01'0 0.0
2017-Dec-15 19:00S 29°53' E 031°01'0 0.0
2017-Dec-15 18:30S 29°53' E 031°01'0 0.0
2017-Dec-15 18:00S 29°53' E 031°01'0 0.0
2017-Dec-15 17:27S 29°53' E 031°01'0 0.0
2017-Dec-15 17:00S 29°53' E 031°01'0 0.0
2017-Dec-15 16:30S 29°53' E 031°01'0 0.0
2017-Dec-15 16:00S 29°53' E 031°01'0 0.0
2017-Dec-15 15:30S 29°53' E 031°01'0 0.0
2017-Dec-15 15:00S 29°53' E 031°01'0 0.0
2017-Dec-15 14:30S 29°53' E 031°01'0 0.0
2017-Dec-15 14:00S 29°53' E 031°01'0 0.0
2017-Dec-15 13:30S 29°53' E 031°01'0 0.0
2017-Dec-15 13:00S 29°53' E 031°01'0 0.0
2017-Dec-15 12:30S 29°53' E 031°01'0 0.0
2017-Dec-15 12:00S 29°53' E 031°01'0 0.0
2017-Dec-15 11:30S 29°53' E 031°01'0 0.0
2017-Dec-15 10:57S 29°53' E 031°01'0 0.0
2017-Dec-15 10:30S 29°53' E 031°01'0 0.0
2017-Dec-15 10:00S 29°53' E 031°01'0 0.0
2017-Dec-15 09:30S 29°53' E 031°01'0 0.0
2017-Dec-15 09:00S 29°53' E 031°01'0 0.0
2017-Dec-15 08:30S 29°53' E 031°01'0 0.0
2017-Dec-15 08:00S 29°53' E 031°01'0 0.0
2017-Dec-15 07:30S 29°53' E 031°01'0 0.0
2017-Dec-15 07:00S 29°53' E 031°01'0 0.0
2017-Dec-15 06:30S 29°53' E 031°01'0 0.0
2017-Dec-15 06:00S 29°53' E 031°01'0 0.0
2017-Dec-15 05:30S 29°53' E 031°01'0 0.0
2017-Dec-15 05:00S 29°53' E 031°01'0 0.0
2017-Dec-15 04:30S 29°53' E 031°01'0 0.0
2017-Dec-15 03:57S 29°53' E 031°01'0 0.0
2017-Dec-15 02:30S 29°53' E 031°01'0 0.0
2017-Dec-15 01:00S 29°53' E 031°01'0 0.0
2017-Dec-15 00:30S 29°53' E 031°01'0 0.0
2017-Dec-14 18:30S 29°53' E 031°01'0 0.0
2017-Dec-14 18:00S 29°53' E 031°01'0 0.0
2017-Dec-14 17:30S 29°53' E 031°01'0 0.0
2017-Dec-14 17:00S 29°53' E 031°01'0 0.0
2017-Dec-14 16:30S 29°53' E 031°01'0 0.0
2017-Dec-14 16:00S 29°53' E 031°01'0 0.0
2017-Dec-14 15:00S 29°53' E 031°01'0 0.0
2017-Dec-14 14:30S 29°53' E 031°01'0 0.0
2017-Dec-14 14:00S 29°53' E 031°01'0 0.0
2017-Dec-14 13:30S 29°53' E 031°01'0 0.0
2017-Dec-14 12:57S 29°53' E 031°01'0 0.0
2017-Dec-14 12:30S 29°53' E 031°01'0 0.0
2017-Dec-14 12:00S 29°53' E 031°01'0 0.0
2017-Dec-14 11:30S 29°53' E 031°01'0 0.0
2017-Dec-14 11:00S 29°53' E 031°01'0 0.0
2017-Dec-14 10:30S 29°53' E 031°01'0 0.0
2017-Dec-14 10:00S 29°53' E 031°01'0 0.0
2017-Dec-14 09:30S 29°53' E 031°01'0 0.0
2017-Dec-14 09:00S 29°53' E 031°01'0 0.0
2017-Dec-14 08:30S 29°53' E 031°01'0 0.0
2017-Dec-14 08:00S 29°53' E 031°01'0 0.0
2017-Dec-14 07:30S 29°53' E 031°01'1 1.4
2017-Dec-14 07:01S 29°52' E 031°02'3 6.3
2017-Dec-14 06:31S 29°50' E 031°05'3 6.0
2017-Dec-14 06:00S 29°48' E 031°07'0 0.2
2017-Dec-14 05:31S 29°48' E 031°07'1 1.4
2017-Dec-14 05:01S 29°49' E 031°06'0 0.6
2017-Dec-14 04:31S 29°49' E 031°06'2 3.5
2017-Dec-14 04:00S 29°49' E 031°08'1 2.4
2017-Dec-14 03:31S 29°50' E 031°10'1 2.4
2017-Dec-14 03:01S 29°51' E 031°10'4 7.6
2017-Dec-14 02:30S 29°55' E 031°10'714.5
2017-Dec-14 02:01S 30°01' E 031°06'918.7
2017-Dec-14 01:31S 30°09' E 030°60'1020.5
2017-Dec-14 01:00S 30°18' E 030°53'  
2017-Dec-06 21:28S 05°53' E 011°23'  

Dump ship's entire track history